Time;durP1;ratioP1;P1;durP2;ratioP2;P2;SDS_P1;SDS_P2;PMS_P1;PMS_P2;Temp;Humidity;BMP_temperature;BMP_pressure;BME280_temperature;BME280_humidity;BME280_pressure;Samples;Min_cycle;Max_cycle;Signal;HPM_P1;HPM_P2
2024/04/22 00:00:38;;;;;;;4.20;1.83;;;20.70;56.70;;;;;;5251187;26;20018;-68
2024/04/22 00:03:03;;;;;;;5.22;1.70;;;20.80;56.70;;;;;;5235499;26;20279;-68
2024/04/22 00:05:29;;;;;;;2.67;1.80;;;20.70;56.60;;;;;;5252857;26;20081;-68
2024/04/22 00:07:54;;;;;;;4.35;1.70;;;20.80;56.60;;;;;;5257946;26;20010;-68
2024/04/22 00:10:20;;;;;;;1.80;1.40;;;20.80;57.20;;;;;;5254910;26;20365;-68
2024/04/22 00:12:45;;;;;;;2.40;1.52;;;20.80;56.60;;;;;;5258281;26;20374;-68
2024/04/22 00:15:11;;;;;;;1.70;1.38;;;20.80;56.60;;;;;;5260751;26;20026;-67
2024/04/22 00:17:36;;;;;;;2.33;1.52;;;20.80;56.50;;;;;;5252936;26;20006;-68
2024/04/22 00:20:02;;;;;;;2.20;1.33;;;20.80;56.50;;;;;;5255732;26;20494;-67
2024/04/22 00:22:27;;;;;;;1.90;1.35;;;20.80;56.50;;;;;;5259922;26;20007;-68
2024/04/22 00:24:53;;;;;;;1.73;1.55;;;20.80;56.40;;;;;;5253611;26;20021;-68
2024/04/22 00:27:18;;;;;;;2.33;1.40;;;20.80;56.50;;;;;;5261026;26;20425;-68
2024/04/22 00:29:44;;;;;;;1.75;1.45;;;20.80;56.50;;;;;;5256871;26;20017;-68
2024/04/22 00:32:09;;;;;;;1.92;1.63;;;20.80;56.40;;;;;;5260056;26;20010;-68
2024/04/22 00:34:35;;;;;;;1.90;1.00;;;20.80;56.40;;;;;;5259119;26;20077;-68
2024/04/22 00:37:00;;;;;;;1.30;1.20;;;20.80;56.40;;;;;;5253669;26;20010;-68
2024/04/22 00:39:26;;;;;;;1.70;1.35;;;20.80;56.40;;;;;;5257773;26;20017;-67
2024/04/22 00:41:51;;;;;;;1.85;1.50;;;20.80;56.40;;;;;;5249608;26;20013;-67
2024/04/22 00:44:17;;;;;;;2.08;1.50;;;20.80;56.30;;;;;;5259971;26;20469;-68
2024/04/22 00:46:43;;;;;;;2.40;1.60;;;20.80;56.30;;;;;;5248211;26;20003;-68
2024/04/22 00:49:09;;;;;;;1.77;1.30;;;20.80;56.20;;;;;;5249777;26;20016;-67
2024/04/22 00:51:37;;;;;;;1.63;1.15;;;20.80;56.30;;;;;;5259885;26;20006;-67
2024/04/22 00:54:04;;;;;;;1.73;1.40;;;20.80;56.30;;;;;;5262873;26;20058;-68
2024/04/22 00:56:29;;;;;;;1.30;1.15;;;20.90;56.30;;;;;;5254564;26;20451;-67
2024/04/22 00:58:57;;;;;;;1.80;1.40;;;20.90;56.20;;;;;;5248935;26;20016;-66
2024/04/22 01:01:24;;;;;;;2.33;1.52;;;20.90;56.20;;;;;;5238835;26;20003;-67
2024/04/22 01:03:50;;;;;;;2.33;1.52;;;20.90;56.10;;;;;;5246808;26;19998;-65
2024/04/22 01:06:16;;;;;;;2.47;1.42;;;20.80;56.10;;;;;;5239841;26;20022;-68
2024/04/22 01:08:42;;;;;;;1.60;1.13;;;20.80;56.20;;;;;;5244762;26;20002;-68
2024/04/22 01:11:07;;;;;;;2.38;1.42;;;20.80;56.20;;;;;;5253438;26;20082;-68
2024/04/22 01:13:33;;;;;;;2.13;1.45;;;20.70;56.10;;;;;;5244718;26;20066;-66
2024/04/22 01:15:59;;;;;;;1.30;1.15;;;20.70;56.20;;;;;;5251637;26;20006;-67
2024/04/22 01:18:24;;;;;;;1.58;1.40;;;20.70;56.10;;;;;;5258167;26;20013;-68
2024/04/22 01:20:50;;;;;;;1.23;1.13;;;20.60;56.20;;;;;;5250546;26;20018;-67
2024/04/22 01:23:15;;;;;;;1.23;1.13;;;20.60;56.10;;;;;;5246515;26;20483;-66
2024/04/22 01:25:44;;;;;;;1.50;1.30;;;20.60;56.20;;;;;;5249908;26;20380;-68
2024/04/22 01:28:10;;;;;;;1.75;1.30;;;20.50;56.00;;;;;;5252393;26;20018;-66
2024/04/22 01:30:35;;;;;;;2.20;1.35;;;20.50;56.20;;;;;;5238664;26;20282;-67
2024/04/22 01:33:01;;;;;;;4.55;1.98;;;20.40;56.10;;;;;;5257829;26;20014;-65
2024/04/22 01:35:26;;;;;;;1.58;1.10;;;20.40;56.00;;;;;;5254060;26;20336;-68
2024/04/22 01:37:52;;;;;;;1.30;1.00;;;20.40;56.10;;;;;;5260287;26;19999;-66
2024/04/22 01:40:17;;;;;;;1.05;0.95;;;20.30;56.10;;;;;;5256596;26;20466;-67
2024/04/22 01:42:43;;;;;;;1.70;1.30;;;20.30;56.10;;;;;;5266492;26;20002;-66
2024/04/22 01:45:08;;;;;;;1.05;0.95;;;20.20;56.20;;;;;;5248071;26;20014;-67
2024/04/22 01:47:34;;;;;;;1.25;1.10;;;20.20;56.10;;;;;;5254029;26;20015;-68
2024/04/22 01:50:00;;;;;;;1.70;1.05;;;20.20;56.10;;;;;;5258349;26;20002;-68
2024/04/22 01:52:25;;;;;;;1.38;1.20;;;20.10;56.00;;;;;;5251250;26;20006;-67
2024/04/22 01:54:51;;;;;;;1.88;1.20;;;20.10;56.00;;;;;;5251816;26;20002;-68
2024/04/22 01:57:16;;;;;;;1.45;1.00;;;20.10;56.00;;;;;;5252072;26;20010;-68
2024/04/22 01:59:42;;;;;;;1.58;0.93;;;20.10;55.90;;;;;;5256371;26;20009;-68
2024/04/22 02:02:07;;;;;;;2.38;1.23;;;20.10;56.00;;;;;;5250287;26;19998;-68
2024/04/22 02:04:33;;;;;;;2.42;1.65;;;20.00;55.70;;;;;;5247678;26;20006;-66
2024/04/22 02:06:58;;;;;;;1.35;1.23;;;20.00;55.90;;;;;;5254489;26;20002;-68
2024/04/22 02:09:24;;;;;;;1.33;1.23;;;20.00;55.80;;;;;;5261376;26;20021;-68
2024/04/22 02:11:53;;;;;;;1.02;0.85;;;20.00;55.60;;;;;;5251801;26;20010;-68
2024/04/22 02:14:18;;;;;;;1.23;1.13;;;20.00;55.70;;;;;;5269437;26;20030;-68
2024/04/22 02:16:46;;;;;;;1.65;1.33;;;20.00;55.80;;;;;;5258861;26;20030;-67
2024/04/22 02:19:11;;;;;;;1.17;1.00;;;20.00;55.80;;;;;;5250023;26;20429;-67
2024/04/22 02:21:37;;;;;;;1.67;1.20;;;20.00;55.80;;;;;;5255945;26;20019;-68
2024/04/22 02:24:02;;;;;;;0.95;0.85;;;20.00;55.80;;;;;;5256613;26;20025;-68
2024/04/22 02:26:28;;;;;;;1.27;1.17;;;20.10;56.00;;;;;;5255140;26;20010;-68
2024/04/22 02:28:53;;;;;;;1.63;1.30;;;20.00;55.80;;;;;;5264084;26;20007;-68
2024/04/22 02:31:20;;;;;;;1.45;1.10;;;20.10;56.00;;;;;;5249944;26;20008;-67
2024/04/22 02:33:46;;;;;;;1.23;1.13;;;20.10;56.10;;;;;;5262180;26;20544;-68
2024/04/22 02:36:12;;;;;;;1.13;1.00;;;20.10;56.70;;;;;;5261813;26;20042;-68
2024/04/22 02:38:38;;;;;;;1.23;0.85;;;20.10;56.10;;;;;;5256893;26;20002;-67
2024/04/22 02:41:03;;;;;;;1.63;1.27;;;20.20;56.10;;;;;;5262211;26;20006;-68
2024/04/22 02:43:29;;;;;;;1.45;1.02;;;20.10;55.90;;;;;;5249762;26;20018;-68
2024/04/22 02:45:54;;;;;;;1.23;1.13;;;20.20;56.00;;;;;;5251811;26;20011;-67
2024/04/22 02:48:20;;;;;;;1.00;0.90;;;20.20;55.90;;;;;;5258273;26;20110;-68
2024/04/22 02:50:45;;;;;;;2.47;1.20;;;20.20;55.90;;;;;;5254529;26;20007;-68
2024/04/22 02:53:11;;;;;;;1.45;1.20;;;20.20;55.80;;;;;;5255067;26;20302;-66
2024/04/22 02:55:36;;;;;;;1.60;1.23;;;20.20;55.90;;;;;;5250507;26;19999;-66
2024/04/22 02:58:02;;;;;;;1.23;0.82;;;20.30;55.90;;;;;;5259375;26;20469;-64
2024/04/22 03:00:27;;;;;;;1.42;1.08;;;20.20;55.90;;;;;;5255917;26;20098;-68
2024/04/22 03:02:53;;;;;;;1.30;1.08;;;20.30;55.90;;;;;;5248659;26;20407;-66
2024/04/22 03:05:19;;;;;;;0.93;0.88;;;20.30;55.90;;;;;;5255018;26;20260;-65
2024/04/22 03:07:44;;;;;;;1.10;1.00;;;20.30;55.90;;;;;;5254190;26;20017;-66
2024/04/22 03:10:10;;;;;;;1.60;1.17;;;20.30;55.90;;;;;;5261262;26;19998;-67
2024/04/22 03:12:36;;;;;;;1.52;1.20;;;20.30;55.90;;;;;;5262817;26;20457;-64
2024/04/22 03:15:01;;;;;;;1.20;1.10;;;20.30;55.90;;;;;;5258426;26;20014;-66
2024/04/22 03:17:27;;;;;;;0.90;0.85;;;20.30;55.80;;;;;;5253945;26;20070;-65
2024/04/22 03:19:53;;;;;;;1.17;1.00;;;20.30;55.80;;;;;;5253616;26;20382;-67
2024/04/22 03:22:19;;;;;;;1.23;1.13;;;20.30;55.70;;;;;;5268072;26;20018;-65
2024/04/22 03:24:45;;;;;;;1.33;1.10;;;20.30;55.70;;;;;;5259928;26;20130;-64
2024/04/22 03:27:10;;;;;;;1.75;1.20;;;20.30;55.70;;;;;;5257707;26;20013;-67
2024/04/22 03:29:36;;;;;;;0.90;0.82;;;20.30;55.70;;;;;;5257267;26;20332;-64
2024/04/22 03:32:02;;;;;;;1.70;0.93;;;20.30;55.70;;;;;;5261274;26;20029;-66
2024/04/22 03:34:27;;;;;;;0.82;0.70;;;20.30;55.70;;;;;;5263476;26;20353;-68
2024/04/22 03:36:53;;;;;;;2.65;1.10;;;20.30;55.70;;;;;;5265386;26;20129;-65
2024/04/22 03:39:18;;;;;;;1.42;1.10;;;20.30;55.70;;;;;;5265091;26;20006;-66
2024/04/22 03:41:44;;;;;;;1.50;1.10;;;20.30;55.60;;;;;;5258910;26;20462;-67
2024/04/22 03:44:09;;;;;;;1.67;1.02;;;20.30;55.60;;;;;;5265057;26;20003;-67
2024/04/22 03:52:03;;;;;;;1.70;1.10;;;20.30;55.50;;;;;;5265425;26;20106;-67
2024/04/22 03:54:29;;;;;;;1.33;0.98;;;20.40;55.50;;;;;;5267076;26;20005;-68
2024/04/22 03:56:54;;;;;;;1.33;1.00;;;20.40;55.50;;;;;;5242858;26;20098;-67
2024/04/22 03:59:20;;;;;;;1.77;1.13;;;20.40;55.50;;;;;;5271490;26;20002;-64
2024/04/22 04:01:45;;;;;;;1.50;1.20;;;20.40;55.50;;;;;;5268074;26;20303;-65
2024/04/22 04:04:11;;;;;;;1.30;1.20;;;20.40;55.50;;;;;;5261267;26;20010;-68
2024/04/22 04:06:36;;;;;;;2.20;1.10;;;20.40;55.50;;;;;;5253448;26;19998;-67
2024/04/22 04:09:02;;;;;;;1.10;1.00;;;20.40;55.40;;;;;;5260693;26;20070;-66
2024/04/22 04:11:33;;;;;;;1.92;1.30;;;20.40;55.40;;;;;;5264903;26;20527;-66
2024/04/22 04:14:00;;;;;;;1.33;0.90;;;20.40;55.50;;;;;;5263753;26;20040;-66
2024/04/22 04:16:26;;;;;;;1.67;1.00;;;20.50;55.50;;;;;;5251313;26;20547;-66
2024/04/22 04:18:52;;;;;;;1.48;1.20;;;20.40;55.30;;;;;;5264922;26;19994;-66
2024/04/22 04:21:17;;;;;;;1.45;1.15;;;20.40;55.30;;;;;;5261284;26;20017;-66
2024/04/22 04:23:43;;;;;;;1.63;1.10;;;20.40;55.30;;;;;;5268648;26;20013;-67
2024/04/22 04:26:08;;;;;;;0.82;0.82;;;20.50;55.30;;;;;;5267938;26;19998;-66
2024/04/22 04:28:34;;;;;;;1.00;0.95;;;20.50;55.30;;;;;;5261991;26;20003;-65
2024/04/22 04:31:00;;;;;;;1.35;0.93;;;20.50;55.20;;;;;;5264132;26;20349;-67
2024/04/22 04:33:26;;;;;;;1.27;1.10;;;20.50;55.30;;;;;;5264355;26;19998;-66
2024/04/22 04:36:05;;;;;;;1.83;0.90;;;20.50;55.20;;;;;;5260852;26;20385;-67
2024/04/22 04:38:31;;;;;;;1.15;1.05;;;20.50;55.10;;;;;;5265863;26;20005;-66
2024/04/22 04:40:57;;;;;;;1.33;1.10;;;20.50;55.10;;;;;;5267265;26;19998;-65
2024/04/22 04:43:23;;;;;;;1.35;1.20;;;20.50;55.20;;;;;;5258826;26;20079;-67
2024/04/22 04:45:49;;;;;;;2.22;2.03;;;20.50;55.10;;;;;;5259904;26;20421;-64
2024/04/22 04:48:15;;;;;;;1.23;0.98;;;20.50;55.10;;;;;;5270609;26;20006;-67
2024/04/22 04:50:40;;;;;;;1.48;1.20;;;20.50;55.10;;;;;;5257630;26;20349;-64
2024/04/22 04:53:06;;;;;;;1.48;1.02;;;20.50;55.00;;;;;;5259960;26;20010;-67
2024/04/22 04:55:32;;;;;;;1.35;1.10;;;20.50;55.00;;;;;;5259736;26;19997;-69
2024/04/22 04:57:58;;;;;;;1.30;1.10;;;20.50;55.00;;;;;;5280379;26;20008;-67
2024/04/22 05:00:23;;;;;;;1.15;1.05;;;20.50;54.90;;;;;;5263145;26;20013;-67
2024/04/22 05:02:49;;;;;;;1.67;1.42;;;20.60;55.00;;;;;;5267106;26;20006;-66
2024/04/22 05:05:15;;;;;;;3.67;1.25;;;20.50;54.90;;;;;;5271269;26;20038;-68
2024/04/22 05:07:40;;;;;;;2.33;1.20;;;20.60;54.90;;;;;;5268904;26;20382;-68
2024/04/22 05:10:06;;;;;;;1.23;1.10;;;20.60;54.90;;;;;;5266049;26;20014;-69
2024/04/22 05:12:32;;;;;;;1.35;1.10;;;20.60;54.90;;;;;;5276016;26;20017;-67
2024/04/22 05:14:57;;;;;;;1.63;1.30;;;20.60;54.90;;;;;;5269229;26;20025;-69
2024/04/22 05:17:23;;;;;;;1.42;1.25;;;20.60;54.90;;;;;;5266090;26;20551;-69
2024/04/22 05:19:48;;;;;;;2.72;1.40;;;20.60;54.80;;;;;;5268660;26;20003;-69
2024/04/22 05:22:13;;;;;;;2.92;2.22;;;20.60;54.90;;;;;;5257117;26;20011;-68
2024/04/22 05:24:39;;;;;;;3.60;2.85;;;20.60;55.00;;;;;;5263085;26;20031;-68
2024/04/22 05:27:04;;;;;;;4.03;3.33;;;20.60;55.00;;;;;;5267645;26;20006;-68
2024/04/22 05:29:31;;;;;;;3.42;3.13;;;20.60;55.00;;;;;;5275696;26;20009;-69
2024/04/22 05:31:56;;;;;;;3.30;2.47;;;20.60;55.00;;;;;;5261578;26;20002;-69
2024/04/22 05:37:06;;;;;;;5.82;2.53;;;20.90;54.70;;;;;;5286950;26;20094;-67
2024/04/22 05:39:31;;;;;;;6.55;2.88;;;20.90;54.30;;;;;;5270944;26;20013;-69
2024/04/22 05:41:57;;;;;;;4.22;2.50;;;21.00;54.40;;;;;;5269505;26;20003;-69
2024/04/22 05:44:22;;;;;;;2.72;2.40;;;21.00;54.20;;;;;;5274644;26;20080;-67
2024/04/22 05:46:48;;;;;;;9.23;2.60;;;21.00;54.10;;;;;;5266508;26;20044;-68
2024/04/22 05:49:13;;;;;;;3.20;2.70;;;21.00;53.90;;;;;;5273096;26;20013;-69
2024/04/22 05:51:39;;;;;;;4.15;2.80;;;21.00;53.80;;;;;;5265798;26;20536;-69
2024/04/22 05:54:06;;;;;;;4.00;2.30;;;21.10;53.80;;;;;;5274222;26;20482;-67
2024/04/22 05:56:37;;;;;;;5.28;2.60;;;21.10;53.70;;;;;;5270559;26;20080;-69
2024/04/22 05:59:04;;;;;;;7.35;2.90;;;21.10;53.70;;;;;;5274737;26;20013;-68
2024/04/22 06:01:30;;;;;;;3.20;2.65;;;21.10;53.80;;;;;;5276775;26;20002;-68
2024/04/22 06:03:55;;;;;;;4.70;3.25;;;21.10;53.80;;;;;;5267104;26;20360;-69
2024/04/22 06:06:21;;;;;;;3.85;3.05;;;21.10;53.80;;;;;;5266347;26;20034;-69
2024/04/22 06:08:46;;;;;;;4.28;2.97;;;21.10;53.70;;;;;;5267330;26;20006;-68
2024/04/22 06:11:12;;;;;;;4.88;2.55;;;21.10;53.60;;;;;;5266937;26;20010;-68
2024/04/22 06:13:38;;;;;;;4.07;2.50;;;21.10;53.60;;;;;;5274140;26;20005;-67
2024/04/22 06:16:04;;;;;;;3.45;2.65;;;21.10;53.50;;;;;;5269532;26;20008;-68
2024/04/22 06:18:29;;;;;;;3.15;2.35;;;21.10;53.60;;;;;;5272217;26;20333;-68
2024/04/22 06:20:55;;;;;;;3.75;2.63;;;21.20;53.50;;;;;;5260796;26;20006;-67
2024/04/22 06:23:20;;;;;;;2.85;2.45;;;21.20;53.40;;;;;;5269085;26;20038;-68
2024/04/22 06:25:45;;;;;;;5.32;2.78;;;21.20;53.40;;;;;;5272803;26;20011;-68
2024/04/22 06:28:11;;;;;;;4.80;2.75;;;21.20;53.30;;;;;;5271376;26;20013;-67
2024/04/22 06:30:36;;;;;;;3.38;2.30;;;21.30;53.20;;;;;;5270809;26;19998;-68
2024/04/22 06:33:02;;;;;;;4.68;2.53;;;21.20;53.20;;;;;;5268696;26;20021;-68
2024/04/22 06:35:28;;;;;;;3.80;2.30;;;21.30;53.20;;;;;;5257697;26;20013;-69
2024/04/22 06:37:53;;;;;;;3.45;2.45;;;21.20;53.20;;;;;;5270573;26;20441;-68
2024/04/22 06:40:21;;;;;;;2.97;2.67;;;21.20;53.30;;;;;;5255723;26;20015;-68
2024/04/22 06:42:46;;;;;;;3.65;2.53;;;21.20;53.20;;;;;;5266757;26;20366;-69
2024/04/22 06:45:12;;;;;;;2.75;2.13;;;21.20;53.10;;;;;;5249999;26;20007;-69
2024/04/22 06:47:37;;;;;;;2.50;2.10;;;21.30;53.10;;;;;;5271143;26;20009;-68
2024/04/22 06:50:03;;;;;;;2.97;2.13;;;21.20;53.00;;;;;;5270625;26;20003;-68
2024/04/22 06:52:29;;;;;;;7.03;2.60;;;21.20;53.00;;;;;;5279737;26;20087;-68
2024/04/22 06:54:54;;;;;;;4.53;2.70;;;21.20;52.90;;;;;;5257170;26;20046;-68
2024/04/22 06:57:19;;;;;;;9.13;5.28;;;21.10;53.00;;;;;;5249531;26;20014;-68
2024/04/22 06:59:47;;;;;;;14.07;7.63;;;21.10;53.00;;;;;;5260921;26;20088;-72
2024/04/22 07:02:12;;;;;;;17.80;9.90;;;21.10;53.10;;;;;;5263368;26;20003;-68
2024/04/22 07:04:38;;;;;;;26.70;14.85;;;21.10;53.20;;;;;;5272965;26;20005;-69
2024/04/22 07:07:03;;;;;;;28.20;16.60;;;21.10;53.20;;;;;;5263575;26;20014;-69
2024/04/22 07:09:29;;;;;;;28.25;15.63;;;21.00;53.30;;;;;;5267373;26;20014;-69
2024/04/22 07:11:54;;;;;;;28.30;17.35;;;21.00;53.50;;;;;;5247536;26;20014;-69
2024/04/22 07:14:22;;;;;;;28.30;17.23;;;21.00;53.50;;;;;;5261676;26;20038;-69
2024/04/22 07:16:54;;;;;;;28.92;17.15;;;20.90;53.50;;;;;;5264794;26;21216;-69
2024/04/22 07:19:19;;;;;;;35.65;19.15;;;20.90;53.50;;;;;;5250416;26;20036;-68
2024/04/22 07:21:45;;;;;;;33.80;17.55;;;20.90;53.50;;;;;;5255998;26;19998;-69
2024/04/22 07:24:10;;;;;;;32.28;17.35;;;20.90;53.50;;;;;;5252489;26;20002;-69
2024/04/22 07:26:36;;;;;;;32.60;17.83;;;20.90;53.50;;;;;;5252936;26;20075;-69
2024/04/22 07:29:02;;;;;;;26.38;16.58;;;20.90;53.50;;;;;;5251133;26;20291;-69
2024/04/22 07:31:27;;;;;;;28.77;16.67;;;20.90;53.50;;;;;;5260322;26;20045;-70
2024/04/22 07:33:53;;;;;;;22.08;15.20;;;20.80;53.40;;;;;;5262108;26;20014;-69
2024/04/22 07:36:34;;;;;;;27.05;16.73;;;20.90;53.50;;;;;;5265187;26;20450;-69
2024/04/22 07:39:01;;;;;;;23.75;15.18;;;20.90;53.40;;;;;;5268720;26;20025;-69
2024/04/22 07:41:27;;;;;;;26.35;16.25;;;20.90;53.40;;;;;;5264722;26;20006;-69
2024/04/22 07:43:54;;;;;;;26.55;15.57;;;20.90;53.40;;;;;;5237712;26;20099;-69
2024/04/22 07:46:21;;;;;;;26.98;15.48;;;20.90;53.30;;;;;;5285073;26;20003;-69
2024/04/22 07:48:47;;;;;;;24.08;14.38;;;20.90;53.30;;;;;;5261393;26;20413;-69
2024/04/22 07:51:12;;;;;;;23.58;14.27;;;20.90;53.30;;;;;;5268991;26;19999;-69
2024/04/22 07:53:38;;;;;;;24.50;14.18;;;20.90;53.30;;;;;;5270794;26;20020;-70
2024/04/22 07:56:14;;;;;;;20.48;13.18;;;20.90;53.30;;;;;;5264412;26;20354;-68
2024/04/22 07:58:40;;;;;;;21.73;13.27;;;20.90;53.30;;;;;;5267389;26;20030;-69
2024/04/22 08:01:06;;;;;;;20.27;12.95;;;20.90;53.30;;;;;;5249835;26;20003;-68
2024/04/22 08:03:32;;;;;;;18.52;12.75;;;20.90;53.30;;;;;;5271406;26;20046;-68
2024/04/22 08:06:03;;;;;;;21.63;13.43;;;20.90;53.30;;;;;;5255614;26;20025;-68
2024/04/22 08:08:30;;;;;;;19.27;11.90;;;20.90;53.20;;;;;;5246279;26;20481;-67
2024/04/22 08:10:56;;;;;;;18.20;11.38;;;21.00;53.60;;;;;;5251376;26;20006;-68
2024/04/22 08:13:22;;;;;;;18.52;11.27;;;20.80;53.50;;;;;;5273657;26;20080;-68
2024/04/22 08:15:47;;;;;;;16.60;10.98;;;20.70;53.90;;;;;;5254581;26;20014;-68
2024/04/22 08:18:14;;;;;;;14.38;10.25;;;20.60;54.40;;;;;;5203266;26;20003;-68
2024/04/22 08:20:40;;;;;;;16.63;9.82;;;20.40;54.60;;;;;;5254974;26;20491;-67
2024/04/22 08:23:06;;;;;;;14.82;9.35;;;20.30;54.60;;;;;;5256365;26;20457;-68
2024/04/22 08:25:31;;;;;;;14.05;8.50;;;20.30;54.80;;;;;;5238520;26;20018;-67
2024/04/22 08:27:57;;;;;;;14.88;9.02;;;20.30;54.90;;;;;;5250823;26;20012;-68
2024/04/22 08:30:24;;;;;;;14.32;8.88;;;20.20;54.90;;;;;;5260373;26;20355;-68
2024/04/22 08:32:49;;;;;;;12.93;9.20;;;20.20;54.90;;;;;;5241570;26;20023;-67
2024/04/22 08:35:15;;;;;;;14.13;8.30;;;20.20;54.90;;;;;;5258992;26;20493;-67
2024/04/22 08:37:40;;;;;;;14.52;9.00;;;20.20;54.80;;;;;;5275354;26;20038;-67
2024/04/22 08:40:06;;;;;;;17.52;9.18;;;20.20;54.90;;;;;;5242048;26;20010;-68
2024/04/22 08:42:32;;;;;;;14.02;8.35;;;20.10;54.90;;;;;;5245696;26;20022;-69
2024/04/22 08:44:58;;;;;;;14.15;8.68;;;20.20;54.60;;;;;;5236810;26;20003;-68
2024/04/22 08:47:23;;;;;;;16.20;10.82;;;20.20;54.70;;;;;;5246223;26;20052;-67
2024/04/22 08:49:49;;;;;;;17.90;10.18;;;20.40;54.70;;;;;;5248504;26;20002;-67
2024/04/22 08:52:16;;;;;;;15.85;9.48;;;20.50;54.30;;;;;;5247842;26;20134;-67
2024/04/22 08:54:41;;;;;;;15.93;9.13;;;20.50;54.20;;;;;;5256849;26;20088;-67
2024/04/22 08:57:07;;;;;;;16.50;10.73;;;20.60;54.20;;;;;;5245911;26;20537;-67
2024/04/22 08:59:32;;;;;;;16.42;9.80;;;20.60;54.20;;;;;;5267190;26;20006;-67
2024/04/22 09:02:02;;;;;;;14.77;9.23;;;20.60;54.10;;;;;;5251888;26;20479;-68
2024/04/22 09:04:28;;;;;;;11.77;9.10;;;20.60;54.10;;;;;;5259160;26;20461;-68
2024/04/22 09:06:53;;;;;;;18.75;10.85;;;20.60;54.20;;;;;;5247584;26;20163;-68
2024/04/22 09:09:20;;;;;;;17.80;10.75;;;20.60;54.20;;;;;;5261511;26;20025;-67
2024/04/22 09:11:52;;;;;;;17.75;12.15;;;20.60;54.70;;;;;;5256109;26;20002;-67
2024/04/22 09:14:18;;;;;;;17.10;11.60;;;20.50;54.40;;;;;;5247871;26;20013;-68
2024/04/22 09:16:44;;;;;;;22.35;12.73;;;20.50;54.50;;;;;;5240257;26;20009;-69
2024/04/22 09:19:09;;;;;;;23.52;12.70;;;20.60;54.50;;;;;;5260950;26;20002;-68
2024/04/22 09:21:38;;;;;;;20.33;11.85;;;20.50;54.40;;;;;;5255370;26;20334;-67
2024/04/22 09:24:06;;;;;;;20.45;12.35;;;20.50;54.30;;;;;;5254233;26;20081;-68
2024/04/22 09:26:33;;;;;;;19.17;11.32;;;20.50;54.20;;;;;;5236242;26;20013;-67
2024/04/22 09:29:02;;;;;;;16.27;11.40;;;20.50;54.70;;;;;;5221924;26;20017;-68
2024/04/22 09:31:29;;;;;;;18.40;12.32;;;20.40;54.70;;;;;;5250294;26;20002;-68
2024/04/22 09:33:56;;;;;;;22.50;11.80;;;20.40;54.70;;;;;;5255945;26;20013;-69
2024/04/22 09:36:22;;;;;;;16.20;10.80;;;20.40;54.70;;;;;;5256363;26;20003;-65
2024/04/22 09:38:50;;;;;;;16.23;10.88;;;20.40;54.80;;;;;;5257531;26;20038;-68
2024/04/22 09:41:18;;;;;;;21.60;11.82;;;20.30;54.80;;;;;;5260322;26;20017;-68
2024/04/22 09:43:46;;;;;;;18.15;11.32;;;20.30;55.40;;;;;;5262349;26;20006;-68
2024/04/22 09:46:13;;;;;;;14.30;9.77;;;20.30;54.70;;;;;;5210441;26;20357;-66
2024/04/22 09:48:42;;;;;;;15.50;10.32;;;20.30;54.70;;;;;;5178007;26;20468;-65
2024/04/22 09:51:09;;;;;;;16.42;9.70;;;20.30;54.60;;;;;;5232498;26;20454;-67
2024/04/22 09:53:35;;;;;;;14.25;9.73;;;20.30;54.60;;;;;;5191126;26;20035;-64
2024/04/22 09:56:06;;;;;;;13.18;9.35;;;20.20;54.50;;;;;;5266679;26;20029;-66
2024/04/22 09:58:34;;;;;;;14.15;9.13;;;20.20;54.60;;;;;;5257430;26;20072;-68
2024/04/22 10:01:00;;;;;;;16.52;10.57;;;20.20;54.50;;;;;;5265226;26;20054;-66
2024/04/22 10:03:27;;;;;;;15.93;9.27;;;20.30;54.60;;;;;;5266162;26;20025;-65
2024/04/22 10:05:56;;;;;;;14.90;9.23;;;20.20;54.60;;;;;;5251006;26;20495;-66
2024/04/22 10:08:21;;;;;;;11.65;8.70;;;20.20;54.60;;;;;;5264938;26;20100;-66
2024/04/22 10:10:47;;;;;;;12.73;9.07;;;20.20;54.60;;;;;;5269376;26;20473;-68
2024/04/22 10:13:13;;;;;;;12.02;8.23;;;20.20;54.50;;;;;;5258397;26;20002;-66
2024/04/22 10:15:39;;;;;;;14.38;8.25;;;20.20;54.60;;;;;;5270649;26;20013;-67
2024/04/22 10:18:14;;;;;;;11.63;7.78;;;20.20;54.60;;;;;;5256960;26;20644;-67
2024/04/22 10:20:40;;;;;;;11.65;7.13;;;20.20;54.60;;;;;;5276058;26;19997;-67
2024/04/22 10:23:07;;;;;;;12.38;7.82;;;20.20;54.60;;;;;;5273536;26;20016;-68
2024/04/22 10:25:32;;;;;;;10.77;7.35;;;20.20;54.60;;;;;;5271220;26;20016;-67
2024/04/22 10:27:58;;;;;;;14.88;7.90;;;20.10;54.60;;;;;;5272487;26;20449;-67
2024/04/22 10:30:37;;;;;;;12.60;7.90;;;20.10;54.60;;;;;;5264778;26;20151;-67
2024/04/22 10:33:03;;;;;;;9.75;6.38;;;20.10;54.50;;;;;;5266414;26;20011;-68
2024/04/22 10:35:30;;;;;;;10.45;6.22;;;20.10;54.50;;;;;;5267475;26;20021;-67
2024/04/22 10:37:56;;;;;;;8.57;6.18;;;20.10;54.60;;;;;;5262678;26;20077;-66
2024/04/22 10:40:22;;;;;;;11.02;7.15;;;20.10;54.40;;;;;;5260444;26;20073;-67
2024/04/22 10:42:47;;;;;;;9.15;6.50;;;20.10;54.50;;;;;;5258131;26;20465;-68
2024/04/22 10:45:13;;;;;;;11.32;6.93;;;20.10;54.60;;;;;;5278252;26;20025;-67
2024/04/22 10:47:39;;;;;;;8.15;5.30;;;20.00;54.40;;;;;;5272727;26;20457;-68
2024/04/22 10:50:16;;;;;;;7.80;5.80;;;20.00;54.40;;;;;;5267809;26;19999;-68
2024/04/22 10:52:41;;;;;;;8.73;5.75;;;20.00;54.30;;;;;;5260572;26;20006;-68
2024/04/22 10:55:07;;;;;;;9.23;6.43;;;20.00;54.90;;;;;;5266540;26;20007;-64
2024/04/22 10:57:34;;;;;;;8.77;6.15;;;20.00;54.40;;;;;;5269824;26;20031;-67
2024/04/22 11:00:01;;;;;;;10.85;5.90;;;20.00;54.00;;;;;;5271629;26;20013;-68
2024/04/22 11:02:31;;;;;;;8.52;5.95;;;20.00;54.30;;;;;;5277824;26;20074;-67
2024/04/22 11:04:57;;;;;;;9.52;4.95;;;20.00;54.20;;;;;;5267376;26;20017;-67
2024/04/22 11:07:23;;;;;;;6.65;4.82;;;20.00;54.30;;;;;;5267238;26;20010;-65
2024/04/22 11:09:52;;;;;;;9.40;5.13;;;20.00;54.00;;;;;;5276532;26;19998;-67
2024/04/22 11:12:18;;;;;;;7.80;4.82;;;20.00;53.90;;;;;;5238896;26;20006;-66
2024/04/22 11:14:44;;;;;;;6.93;5.00;;;20.00;53.70;;;;;;5270622;26;20519;-66
2024/04/22 11:17:12;;;;;;;6.63;4.10;;;20.10;54.00;;;;;;5270892;26;20014;-65
2024/04/22 11:19:38;;;;;;;8.57;4.50;;;20.10;54.80;;;;;;5278959;26;20295;-68
2024/04/22 11:22:07;;;;;;;4.22;3.78;;;20.10;54.50;;;;;;5275303;26;20021;-68
2024/04/22 11:24:33;;;;;;;5.18;3.50;;;20.10;54.90;;;;;;5260675;26;20017;-68
2024/04/22 11:26:58;;;;;;;5.78;3.78;;;20.10;55.70;;;;;;5266607;26;20002;-65
2024/04/22 11:29:25;;;;;;;6.38;3.60;;;20.10;55.20;;;;;;5267919;26;20024;-66
2024/04/22 11:31:57;;;;;;;5.30;4.00;;;20.10;55.40;;;;;;5267671;26;20012;-65
2024/04/22 11:34:23;;;;;;;5.22;3.53;;;20.00;55.40;;;;;;5268977;26;20365;-65
2024/04/22 11:36:57;;;;;;;5.10;3.70;;;20.00;55.40;;;;;;5266149;26;20014;-67
2024/04/22 11:39:25;;;;;;;5.13;3.63;;;20.00;55.50;;;;;;5267680;26;20353;-67
2024/04/22 11:41:51;;;;;;;4.53;3.47;;;20.00;55.40;;;;;;5262164;26;20021;-66
2024/04/22 11:44:17;;;;;;;3.53;3.15;;;20.00;55.30;;;;;;5267340;26;20035;-65
2024/04/22 11:46:42;;;;;;;5.32;3.20;;;20.00;55.30;;;;;;5271621;26;20020;-66
2024/04/22 11:49:08;;;;;;;3.63;3.05;;;20.00;55.20;;;;;;5261638;26;20003;-65
2024/04/22 11:51:34;;;;;;;4.95;2.92;;;20.00;55.00;;;;;;5260732;26;20037;-68
2024/04/22 11:53:59;;;;;;;5.18;2.95;;;20.00;54.80;;;;;;5261836;26;20009;-67
2024/04/22 11:56:30;;;;;;;3.65;2.97;;;20.00;54.80;;;;;;5265198;26;20019;-66
2024/04/22 11:58:57;;;;;;;4.15;3.03;;;20.00;54.80;;;;;;5260152;26;20377;-66
2024/04/22 12:01:22;;;;;;;6.45;2.90;;;20.00;54.80;;;;;;5264614;26;20474;-66
2024/04/22 12:03:48;;;;;;;3.92;2.90;;;20.00;54.70;;;;;;5269926;26;20010;-66
2024/04/22 12:06:13;;;;;;;3.67;2.75;;;20.00;54.70;;;;;;5259989;26;20377;-65
2024/04/22 12:08:39;;;;;;;4.70;2.60;;;20.00;54.60;;;;;;5263774;26;20173;-66
2024/04/22 12:11:04;;;;;;;3.95;2.50;;;20.00;54.40;;;;;;5263456;26;20007;-68
2024/04/22 12:13:30;;;;;;;2.92;2.22;;;20.00;54.40;;;;;;5268785;26;19998;-69
2024/04/22 12:15:55;;;;;;;3.65;2.70;;;20.00;54.30;;;;;;5270210;26;19998;-65
2024/04/22 12:18:20;;;;;;;4.22;2.60;;;20.00;54.30;;;;;;5264640;26;20003;-65
2024/04/22 12:20:46;;;;;;;2.78;2.45;;;20.00;54.10;;;;;;5273191;26;20013;-67
2024/04/22 12:23:11;;;;;;;3.05;2.45;;;20.00;54.10;;;;;;5262660;26;20458;-68
2024/04/22 12:25:37;;;;;;;2.45;2.13;;;20.00;53.90;;;;;;5269676;26;19998;-64
2024/04/22 12:28:02;;;;;;;3.22;2.55;;;20.00;54.00;;;;;;5267673;26;20346;-67
2024/04/22 12:30:28;;;;;;;4.80;2.30;;;20.00;54.30;;;;;;5229969;26;20007;-69
2024/04/22 12:32:53;;;;;;;4.22;2.20;;;20.00;54.40;;;;;;5273774;26;20003;-66
2024/04/22 12:35:19;;;;;;;5.43;2.30;;;20.00;54.50;;;;;;5271517;26;20356;-65
2024/04/22 12:37:44;;;;;;;4.55;2.83;;;20.10;54.70;;;;;;5273225;26;20018;-66
2024/04/22 12:40:10;;;;;;;4.95;2.88;;;20.10;54.80;;;;;;5266734;26;20096;-69
2024/04/22 12:42:36;;;;;;;4.63;2.85;;;20.10;54.80;;;;;;5266194;26;20002;-65
2024/04/22 12:45:03;;;;;;;3.70;2.22;;;20.00;54.80;;;;;;5269599;26;20545;-68